createdAt,value
2023-03-02T00:01:28.757Z,16.33
2023-03-02T00:03:59.617Z,16.67
2023-03-02T00:06:30.320Z,17.00
2023-03-02T00:09:02.680Z,8.00
2023-03-02T00:11:31.862Z,21.00
2023-03-02T00:13:58.820Z,19.00
2023-03-02T00:16:26.691Z,18.33
2023-03-02T00:18:53.719Z,15.00
2023-03-02T00:21:20.641Z,19.00
2023-03-02T00:23:48.489Z,17.67
2023-03-02T00:26:17.951Z,18.17
2023-03-02T00:28:45.748Z,19.67
2023-03-02T00:31:13.788Z,21.00
2023-03-02T00:33:40.565Z,18.50
2023-03-02T00:36:16.287Z,17.67
2023-03-02T00:38:43.907Z,23.50
2023-03-02T00:41:13.485Z,22.00
2023-03-02T00:43:42.401Z,20.67
2023-03-02T00:46:23.018Z,21.67
2023-03-02T00:48:52.210Z,18.00
2023-03-02T00:51:20.346Z,18.00
2023-03-02T00:53:48.245Z,23.00
2023-03-02T00:56:15.124Z,22.00
2023-03-02T00:58:42.823Z,19.33
2023-03-02T01:01:12.789Z,22.00
2023-03-02T01:03:40.609Z,22.00
2023-03-02T01:06:20.162Z,20.33
2023-03-02T01:08:48.024Z,19.33
2023-03-02T01:11:16.997Z,19.00
2023-03-02T01:13:45.724Z,19.67
2023-03-02T01:16:14.510Z,20.67
2023-03-02T01:18:42.536Z,15.33
2023-03-02T01:21:15.231Z,16.83
2023-03-02T01:23:44.822Z,17.50
2023-03-02T01:26:14.292Z,19.67
2023-03-02T01:28:42.031Z,19.00
2023-03-02T01:31:10.105Z,20.00
2023-03-02T01:33:39.719Z,16.17
2023-03-02T01:36:08.059Z,22.67
2023-03-02T01:38:35.913Z,19.67
2023-03-02T01:41:04.120Z,15.33
2023-03-02T01:43:32.267Z,20.67
2023-03-02T01:46:13.385Z,19.67
2023-03-02T01:48:49.300Z,16.00
2023-03-02T01:51:20.120Z,19.50
2023-03-02T01:53:54.640Z,18.67
2023-03-02T01:56:28.758Z,18.67
2023-03-02T01:59:03.349Z,18.50
2023-03-02T02:01:34.636Z,22.33
2023-03-02T02:04:02.992Z,20.00
2023-03-02T02:06:39.837Z,19.00
2023-03-02T02:09:13.459Z,15.00
2023-03-02T02:11:43.934Z,18.67
2023-03-02T02:14:12.404Z,24.67
2023-03-02T02:16:40.822Z,20.67
2023-03-02T02:19:22.507Z,21.00
2023-03-02T02:21:50.367Z,20.00
2023-03-02T02:24:25.098Z,19.00
2023-03-02T02:26:56.160Z,19.00
2023-03-02T02:29:37.650Z,17.00
2023-03-02T02:32:14.379Z,20.00
2023-03-02T02:34:49.930Z,19.00
2023-03-02T02:37:27.737Z,19.00
2023-03-02T02:39:56.190Z,25.00
2023-03-02T02:42:46.335Z,21.00
2023-03-02T02:45:33.526Z,21.67
2023-03-02T02:48:01.282Z,18.00
2023-03-02T02:50:35.235Z,21.50
2023-03-02T02:53:05.799Z,23.67
2023-03-02T02:55:35.650Z,24.00
2023-03-02T02:58:10.220Z,21.00
2023-03-02T03:00:38.596Z,22.00
2023-03-02T03:03:29.366Z,21.00
2023-03-02T03:06:03.159Z,21.33
2023-03-02T03:08:46.302Z,16.00
2023-03-02T03:11:23.638Z,19.67
2023-03-02T03:14:02.736Z,19.00
2023-03-02T03:16:32.982Z,16.67
2023-03-02T03:19:09.313Z,18.00
2023-03-02T03:21:38.867Z,21.00
2023-03-02T03:24:06.973Z,23.33
2023-03-02T03:26:35.062Z,18.67
2023-03-02T03:29:03.009Z,22.00
2023-03-02T03:31:30.811Z,15.00
2023-03-02T03:34:01.717Z,15.33
2023-03-02T03:36:30.060Z,18.67
2023-03-02T03:39:00.544Z,19.83
2023-03-02T03:41:30.090Z,17.67
2023-03-02T03:43:57.826Z,18.00
2023-03-02T03:46:27.555Z,21.17
2023-03-02T03:48:56.343Z,21.00
2023-03-02T03:51:24.824Z,18.67
2023-03-02T03:54:01.710Z,24.33
2023-03-02T03:56:35.461Z,18.00
2023-03-02T03:59:08.649Z,23.33
2023-03-02T04:01:43.872Z,20.67
2023-03-02T04:04:15.542Z,20.00
2023-03-02T04:06:44.121Z,19.00
2023-03-02T04:09:13.070Z,19.00
2023-03-02T04:11:43.146Z,21.33
2023-03-02T04:14:12.729Z,20.33
2023-03-02T04:16:41.079Z,18.00
2023-03-02T04:19:09.721Z,21.00
2023-03-02T04:21:42.816Z,20.50
2023-03-02T04:24:10.784Z,22.00
2023-03-02T04:26:40.510Z,21.00
2023-03-02T04:29:09.831Z,15.33
2023-03-02T04:31:38.334Z,22.00
2023-03-02T04:34:08.993Z,19.33
2023-03-02T04:36:39.276Z,19.67
2023-03-02T04:39:07.581Z,19.00
2023-03-02T04:41:35.874Z,19.67
2023-03-02T04:44:04.326Z,19.00
2023-03-02T04:46:33.132Z,18.00
2023-03-02T04:49:00.632Z,22.00
2023-03-02T04:51:35.320Z,24.00
2023-03-02T04:54:14.225Z,20.00
2023-03-02T04:56:44.858Z,23.00
2023-03-02T04:59:12.912Z,18.33
2023-03-02T05:01:41.864Z,16.00
2023-03-02T05:04:09.762Z,24.00
2023-03-02T05:06:37.748Z,20.67
2023-03-02T05:09:05.164Z,20.00
2023-03-02T05:11:33.290Z,18.67
2023-03-02T05:14:03.804Z,18.00
2023-03-02T05:16:33.256Z,22.00
2023-03-02T05:19:02.772Z,22.67
2023-03-02T05:21:30.772Z,22.67
2023-03-02T05:23:59.158Z,24.33
2023-03-02T05:26:27.291Z,24.33
2023-03-02T05:28:55.207Z,24.67
2023-03-02T05:31:29.418Z,21.00
2023-03-02T05:33:58.057Z,21.00
2023-03-02T05:36:24.837Z,25.00
2023-03-02T05:38:54.551Z,19.50
2023-03-02T05:41:24.281Z,21.83
2023-03-02T05:43:52.502Z,23.33
2023-03-02T05:46:21.989Z,23.33
2023-03-02T05:48:50.291Z,21.00
2023-03-02T05:51:18.389Z,19.00
2023-03-02T05:53:46.869Z,18.33
2023-03-02T05:56:14.849Z,23.33
2023-03-02T05:58:42.612Z,19.00
2023-03-02T06:01:13.632Z,24.67
2023-03-02T06:03:43.524Z,19.67
2023-03-02T06:06:15.424Z,23.33
2023-03-02T06:08:44.480Z,19.67
2023-03-02T06:11:12.804Z,24.33
2023-03-02T06:13:40.943Z,21.00
2023-03-02T06:16:09.780Z,18.67
2023-03-02T06:18:40.943Z,21.00
2023-03-02T06:21:10.106Z,21.33
2023-03-02T06:23:38.246Z,25.00
2023-03-02T06:26:12.340Z,15.33
2023-03-02T06:28:52.221Z,24.67
2023-03-02T06:31:20.873Z,21.00
2023-03-02T06:33:48.962Z,25.00
2023-03-02T06:36:17.710Z,24.67
2023-03-02T06:38:45.673Z,21.00
2023-03-02T06:41:12.671Z,24.50
2023-03-02T06:43:40.557Z,25.00
2023-03-02T06:46:08.797Z,21.67
2023-03-02T06:48:35.941Z,21.00
2023-03-02T06:51:03.262Z,25.00
2023-03-02T06:53:31.360Z,21.67
2023-03-02T06:56:00.984Z,22.67
2023-03-02T06:58:28.734Z,27.00
2023-03-02T07:00:57.856Z,23.67
2023-03-02T07:03:24.777Z,25.00
2023-03-02T07:05:54.342Z,20.67
2023-03-02T07:08:22.420Z,25.33
2023-03-02T07:10:50.271Z,30.00
2023-03-02T07:13:17.219Z,27.00
2023-03-02T07:15:44.955Z,27.00
2023-03-02T07:18:12.802Z,21.33
2023-03-02T07:20:40.022Z,26.00
2023-03-02T07:23:07.409Z,24.50
2023-03-02T07:25:34.331Z,23.00
2023-03-02T07:28:01.173Z,23.00
2023-03-02T07:30:28.244Z,26.00
2023-03-02T07:32:55.376Z,24.00
2023-03-02T07:35:23.505Z,25.00
2023-03-02T07:37:52.165Z,30.50
2023-03-02T07:40:20.036Z,31.00
2023-03-02T07:42:47.945Z,30.00
2023-03-02T07:45:16.964Z,27.50
2023-03-02T07:47:44.851Z,30.00
2023-03-02T07:50:12.196Z,30.50
2023-03-02T07:52:39.861Z,27.33
2023-03-02T07:55:07.011Z,29.00
2023-03-02T07:57:33.847Z,31.00
2023-03-02T08:00:00.879Z,30.50
2023-03-02T08:02:28.534Z,30.00
2023-03-02T08:04:55.772Z,30.00
2023-03-02T08:07:22.763Z,30.00
2023-03-02T08:09:50.661Z,26.67
2023-03-02T08:12:17.615Z,30.00
2023-03-02T08:14:44.837Z,30.00
2023-03-02T08:17:11.674Z,31.00
2023-03-02T08:19:39.455Z,28.00
2023-03-02T08:22:06.404Z,28.00
2023-03-02T08:24:34.129Z,18.33
2023-03-02T08:27:02.232Z,29.00
2023-03-02T08:29:29.866Z,33.00
2023-03-02T08:31:58.997Z,30.00
2023-03-02T08:34:27.662Z,31.00
2023-03-02T08:36:55.598Z,30.00
2023-03-02T08:39:25.378Z,27.00
2023-03-02T08:41:55.653Z,34.00
2023-03-02T08:44:23.648Z,29.33
2023-03-02T08:46:51.915Z,34.00
2023-03-02T08:49:19.880Z,33.00
2023-03-02T08:51:53.547Z,32.75
2023-03-02T08:54:22.516Z,34.50
2023-03-02T08:56:50.284Z,34.00
2023-03-02T08:59:18.988Z,33.33
2023-03-02T09:01:46.869Z,37.50
2023-03-02T09:04:14.865Z,33.50
2023-03-02T09:06:45.122Z,37.33
2023-03-02T09:09:14.478Z,32.00
2023-03-02T09:11:42.566Z,35.00
2023-03-02T09:14:11.109Z,35.00
2023-03-02T09:16:39.791Z,32.33
2023-03-02T09:19:07.273Z,32.00
2023-03-02T09:21:36.078Z,34.00
2023-03-02T09:24:05.107Z,33.33
2023-03-02T09:26:33.095Z,33.50
2023-03-02T09:29:01.809Z,29.00
2023-03-02T09:31:30.447Z,32.00
2023-03-02T09:33:57.866Z,32.00
2023-03-02T09:36:27.389Z,31.50
2023-03-02T09:38:56.171Z,32.33
2023-03-02T09:41:54.362Z,32.00
2023-03-02T09:44:34.228Z,30.50
2023-03-02T09:47:19.809Z,35.00
2023-03-02T09:50:42.715Z,32.00
2023-03-02T09:53:55.450Z,32.50
2023-03-02T09:56:22.603Z,32.50
2023-03-02T09:59:19.658Z,33.50
2023-03-02T10:02:01.714Z,31.00
2023-03-02T10:04:44.828Z,34.50
2023-03-02T10:07:33.990Z,33.00
2023-03-02T10:10:22.856Z,35.67
2023-03-02T10:12:56.431Z,33.00
2023-03-02T10:15:31.028Z,31.00
2023-03-02T10:18:11.025Z,31.00
2023-03-02T10:20:57.065Z,32.50
2023-03-02T10:23:31.282Z,31.00
2023-03-02T10:26:35.260Z,34.00
2023-03-02T10:29:32.936Z,30.67
2023-03-02T10:32:08.671Z,25.00
2023-03-02T10:34:38.087Z,28.00
2023-03-02T10:37:25.449Z,31.00
2023-03-02T10:39:53.445Z,28.00
2023-03-02T10:42:47.968Z,28.00
2023-03-02T10:45:31.229Z,22.50
2023-03-02T10:48:09.252Z,27.00
2023-03-02T10:50:37.685Z,25.67
2023-03-02T10:53:18.137Z,25.00
2023-03-02T10:55:52.595Z,28.50
2023-03-02T10:58:30.005Z,20.50
2023-03-02T11:01:02.440Z,28.00
2023-03-02T11:03:30.881Z,27.00
2023-03-02T11:06:12.257Z,27.50
2023-03-02T11:08:40.180Z,24.50
2023-03-02T11:11:22.659Z,24.00
2023-03-02T11:13:50.419Z,28.00
2023-03-02T11:16:18.683Z,27.67
2023-03-02T11:19:03.581Z,28.00
2023-03-02T11:21:35.852Z,27.00
2023-03-02T11:24:15.273Z,23.50
2023-03-02T11:26:50.330Z,30.00
2023-03-02T11:29:41.198Z,20.33
2023-03-02T11:32:26.794Z,24.50
2023-03-02T11:35:02.992Z,22.00
2023-03-02T11:37:48.423Z,26.67
2023-03-02T11:40:26.682Z,19.00
2023-03-02T11:42:58.552Z,20.50
2023-03-02T11:45:42.107Z,22.00
2023-03-02T11:48:12.845Z,18.00
2023-03-02T11:50:55.478Z,25.50
2023-03-02T11:53:26.037Z,25.50
2023-03-02T11:55:53.018Z,24.00
2023-03-02T11:58:23.748Z,22.00
2023-03-02T12:00:52.346Z,20.33
2023-03-02T12:03:32.136Z,21.33
2023-03-02T12:06:07.341Z,11.67
2023-03-02T12:08:41.856Z,22.00
2023-03-02T12:11:18.978Z,26.50
2023-03-02T12:13:49.674Z,25.00
2023-03-02T12:16:42.225Z,26.00
2023-03-02T12:19:25.570Z,28.00
2023-03-02T12:21:57.986Z,29.00
2023-03-02T12:24:29.682Z,23.00
2023-03-02T12:27:13.309Z,29.00
2023-03-02T12:29:42.605Z,32.00
2023-03-02T12:32:12.375Z,29.00
2023-03-02T12:34:55.175Z,31.00
2023-03-02T12:37:28.130Z,29.00
2023-03-02T12:40:03.164Z,29.67
2023-03-02T12:42:30.355Z,25.00
2023-03-02T12:45:12.448Z,32.00
2023-03-02T12:47:47.202Z,29.50
2023-03-02T12:50:25.715Z,27.50
2023-03-02T12:52:59.680Z,27.50
2023-03-02T12:55:28.527Z,23.67
2023-03-02T12:58:01.382Z,30.67
2023-03-02T13:00:32.578Z,30.00
2023-03-02T13:03:09.805Z,29.00
2023-03-02T13:05:38.568Z,30.00
2023-03-02T13:08:13.073Z,26.50
2023-03-02T13:10:44.281Z,30.00
2023-03-02T13:13:26.963Z,30.33
2023-03-02T13:16:04.709Z,28.00
2023-03-02T13:18:36.551Z,33.00
2023-03-02T13:21:05.774Z,30.50
2023-03-02T13:23:34.754Z,31.50
2023-03-02T13:26:05.919Z,31.00
2023-03-02T13:28:40.280Z,31.33
2023-03-02T13:31:17.546Z,32.50
2023-03-02T13:33:46.985Z,31.50
2023-03-02T13:36:27.520Z,30.00
2023-03-02T13:39:00.360Z,33.00
2023-03-02T13:41:31.379Z,31.00
2023-03-02T13:44:16.682Z,35.33
2023-03-02T13:46:45.727Z,38.33
2023-03-02T13:49:13.821Z,32.50
2023-03-02T13:51:46.311Z,36.33
2023-03-02T13:54:21.433Z,30.00
2023-03-02T13:56:52.261Z,31.33
2023-03-02T13:59:22.225Z,27.00
2023-03-02T14:01:50.942Z,29.50
2023-03-02T14:04:23.672Z,28.00
2023-03-02T14:06:53.531Z,27.00
2023-03-02T14:09:22.446Z,26.67
2023-03-02T14:11:53.835Z,25.33
2023-03-02T14:14:26.605Z,27.00
2023-03-02T14:16:55.243Z,20.33
2023-03-02T14:19:22.312Z,17.00
2023-03-02T14:21:50.423Z,22.33
2023-03-02T14:24:18.259Z,19.67
2023-03-02T14:26:50.896Z,19.67
2023-03-02T14:29:30.303Z,31.50
2023-03-02T14:32:03.767Z,29.50
2023-03-02T14:34:30.853Z,23.50
2023-03-02T14:37:02.739Z,19.00
2023-03-02T14:39:39.814Z,27.00
2023-03-02T14:42:12.911Z,27.50
2023-03-02T14:44:41.663Z,28.00
2023-03-02T14:47:10.431Z,24.00
2023-03-02T14:49:39.974Z,26.67
2023-03-02T14:52:25.041Z,26.00
2023-03-02T14:54:59.399Z,24.00
2023-03-02T14:57:28.900Z,29.00
2023-03-02T14:59:56.618Z,26.50
2023-03-02T15:02:26.508Z,27.50
2023-03-02T15:04:57.452Z,28.00
2023-03-02T15:07:28.233Z,32.67
2023-03-02T15:09:58.232Z,33.00
2023-03-02T15:12:26.033Z,30.00
2023-03-02T15:14:53.839Z,28.50
2023-03-02T15:17:21.662Z,30.00
2023-03-02T15:19:49.391Z,32.50
2023-03-02T15:22:17.302Z,30.50
2023-03-02T15:24:45.217Z,38.50
2023-03-02T15:27:12.067Z,39.50
2023-03-02T15:29:44.043Z,29.00
2023-03-02T15:32:12.368Z,28.00
2023-03-02T15:34:41.160Z,28.00
2023-03-02T15:37:11.598Z,33.33
2023-03-02T15:39:39.828Z,36.00
2023-03-02T15:42:07.022Z,37.00
2023-03-02T15:44:35.054Z,32.00
2023-03-02T15:47:03.769Z,26.67
2023-03-02T15:49:33.072Z,36.00
2023-03-02T15:52:01.991Z,32.33
2023-03-02T15:54:29.800Z,32.00
2023-03-02T15:56:58.718Z,36.33
2023-03-02T15:59:29.758Z,32.33
2023-03-02T16:01:59.809Z,30.67
2023-03-02T16:04:28.409Z,30.00
2023-03-02T16:06:57.982Z,32.00
2023-03-02T16:09:26.982Z,24.00
2023-03-02T16:11:56.576Z,29.50
2023-03-02T16:14:24.594Z,29.00
2023-03-02T16:16:52.437Z,24.00
2023-03-02T16:19:20.246Z,28.00
2023-03-02T16:21:49.135Z,31.00
2023-03-02T16:24:17.219Z,31.00
2023-03-02T16:26:45.992Z,30.00
2023-03-02T16:29:14.441Z,34.00
2023-03-02T16:31:46.269Z,34.00
2023-03-02T16:34:15.471Z,32.00
2023-03-02T16:36:43.689Z,33.67
2023-03-02T16:39:13.097Z,29.33
2023-03-02T16:41:43.271Z,34.50
2023-03-02T16:44:12.457Z,31.00
2023-03-02T16:46:43.593Z,33.00
2023-03-02T16:49:14.244Z,32.33
2023-03-02T16:51:42.431Z,33.50
2023-03-02T16:54:14.598Z,30.67
2023-03-02T16:56:45.479Z,32.00
2023-03-02T16:59:13.476Z,36.33
2023-03-02T17:01:41.490Z,38.00
2023-03-02T17:04:08.699Z,37.00
2023-03-02T17:06:40.123Z,0.00
2023-03-02T17:09:09.835Z,39.50
2023-03-02T17:11:38.511Z,40.50
2023-03-02T17:14:06.273Z,39.00
2023-03-02T17:16:35.888Z,39.00
2023-03-02T17:19:03.653Z,36.50
2023-03-02T17:21:31.534Z,41.50
2023-03-02T17:24:00.058Z,40.00
2023-03-02T17:26:28.643Z,41.67
2023-03-02T17:28:56.512Z,40.50
2023-03-02T17:31:24.660Z,42.50
2023-03-02T17:33:51.584Z,44.50
2023-03-02T17:36:19.577Z,41.50
2023-03-02T17:38:48.652Z,45.33
2023-03-02T17:41:17.582Z,43.33
2023-03-02T17:43:46.210Z,43.33
2023-03-02T17:46:23.608Z,43.00
2023-03-02T17:48:56.419Z,41.33
2023-03-02T17:51:25.421Z,44.50
2023-03-02T17:53:55.119Z,40.00
2023-03-02T17:56:26.238Z,39.00
2023-03-02T17:58:58.761Z,40.00
2023-03-02T18:01:26.912Z,41.00
2023-03-02T18:03:53.820Z,40.00
2023-03-02T18:06:22.221Z,40.00
2023-03-02T18:08:51.906Z,41.50
2023-03-02T18:11:23.477Z,42.00
2023-03-02T18:13:54.937Z,43.67
2023-03-02T18:16:25.418Z,45.00
2023-03-02T18:18:54.438Z,43.33
2023-03-02T18:21:23.659Z,43.33
2023-03-02T18:23:52.360Z,42.00
2023-03-02T18:26:20.757Z,38.00
2023-03-02T18:28:48.710Z,42.00
2023-03-02T18:31:18.509Z,40.00
2023-03-02T18:33:47.321Z,39.50
2023-03-02T18:36:15.493Z,42.00
2023-03-02T18:38:44.095Z,43.33
2023-03-02T18:41:13.724Z,43.00
2023-03-02T18:43:42.997Z,39.00
2023-03-02T18:46:26.642Z,40.50
2023-03-02T18:48:55.884Z,39.50
2023-03-02T18:51:25.681Z,46.00
2023-03-02T18:53:55.712Z,43.67
2023-03-02T18:56:24.766Z,48.33
2023-03-02T18:58:53.496Z,42.00
2023-03-02T19:01:22.424Z,40.00
2023-03-02T19:03:50.621Z,44.00
2023-03-02T19:06:20.778Z,42.00
2023-03-02T19:08:50.062Z,39.67
2023-03-02T19:11:18.365Z,39.00
2023-03-02T19:13:46.445Z,37.50
2023-03-02T19:16:14.586Z,36.00
2023-03-02T19:18:41.442Z,37.50
2023-03-02T19:21:09.397Z,36.00
2023-03-02T19:23:36.393Z,35.50
2023-03-02T19:26:04.946Z,38.00
2023-03-02T19:28:35.326Z,39.00
2023-03-02T19:31:06.845Z,36.00
2023-03-02T19:33:34.208Z,34.00
2023-03-02T19:36:02.153Z,36.00
2023-03-02T19:38:31.284Z,39.33
2023-03-02T19:41:00.412Z,34.00
2023-03-02T19:43:29.247Z,38.00
2023-03-02T19:45:56.407Z,38.00
2023-03-02T19:48:25.066Z,37.67
2023-03-02T19:50:53.128Z,38.00
2023-03-02T19:53:21.171Z,39.00
2023-03-02T19:55:49.179Z,36.00
2023-03-02T19:58:17.267Z,36.00
2023-03-02T20:00:45.647Z,37.50
2023-03-02T20:03:13.990Z,36.00
2023-03-02T20:05:42.546Z,33.00
2023-03-02T20:08:11.157Z,32.00
2023-03-02T20:10:43.425Z,31.00
2023-03-02T20:13:12.193Z,29.50
2023-03-02T20:15:44.729Z,32.00
2023-03-02T20:18:17.389Z,28.00
2023-03-02T20:20:47.202Z,34.00
2023-03-02T20:23:16.020Z,31.50
2023-03-02T20:25:47.207Z,37.00
2023-03-02T20:28:18.781Z,34.50
2023-03-02T20:30:56.735Z,36.00
2023-03-02T20:33:29.366Z,34.50
2023-03-02T20:35:58.442Z,35.50
2023-03-02T20:38:32.589Z,38.00
2023-03-02T20:41:02.115Z,38.00
2023-03-02T20:43:29.873Z,40.00
2023-03-02T20:45:59.588Z,38.00
2023-03-02T20:48:28.227Z,41.00
2023-03-02T20:50:56.217Z,39.50
2023-03-02T20:53:24.838Z,40.50
2023-03-02T20:55:52.974Z,38.00
2023-03-02T20:58:20.413Z,36.50
2023-03-02T21:00:49.121Z,34.67
2023-03-02T21:03:17.131Z,35.00
2023-03-02T21:05:44.798Z,33.00
2023-03-02T21:08:14.909Z,36.00
2023-03-02T21:10:43.932Z,36.00
2023-03-02T21:13:12.230Z,33.50
2023-03-02T21:15:41.298Z,34.00
2023-03-02T21:18:09.381Z,35.00
2023-03-02T21:20:39.838Z,34.00
2023-03-02T21:23:07.703Z,32.00
2023-03-02T21:25:34.885Z,31.00
2023-03-02T21:28:03.063Z,30.50
2023-03-02T21:30:34.458Z,32.00
2023-03-02T21:33:03.595Z,31.00
2023-03-02T21:35:31.852Z,34.00
2023-03-02T21:38:04.854Z,30.00
2023-03-02T21:40:40.805Z,30.00
2023-03-02T21:45:51.799Z,28.00
2023-03-02T21:48:19.111Z,27.50
2023-03-02T21:50:48.158Z,28.00
2023-03-02T21:53:16.281Z,30.00
2023-03-02T21:55:45.829Z,27.00
2023-03-02T21:58:13.704Z,27.67
2023-03-02T22:00:40.905Z,27.50
2023-03-02T22:03:08.682Z,28.00
2023-03-02T22:05:36.584Z,28.00
2023-03-02T22:08:04.364Z,28.00
2023-03-02T22:10:33.733Z,27.50
2023-03-02T22:13:27.850Z,30.00
2023-03-02T22:16:23.742Z,29.00
2023-03-02T22:18:58.243Z,30.00
2023-03-02T22:21:38.936Z,28.00
2023-03-02T22:24:09.756Z,31.00
2023-03-02T22:26:47.894Z,30.50
2023-03-02T22:29:24.170Z,28.00
2023-03-02T22:31:53.987Z,25.00
2023-03-02T22:34:29.664Z,29.33
2023-03-02T22:37:10.195Z,30.00
2023-03-02T22:39:39.434Z,27.00
2023-03-02T22:42:18.910Z,19.67
2023-03-02T22:45:15.072Z,25.00
2023-03-02T22:47:44.134Z,25.67
2023-03-02T22:50:26.146Z,30.00
2023-03-02T22:52:54.706Z,24.00
2023-03-02T22:55:27.690Z,30.00
2023-03-02T22:57:57.547Z,22.33
2023-03-02T23:00:39.529Z,30.00
2023-03-02T23:03:32.657Z,30.00
2023-03-02T23:06:00.523Z,27.00
2023-03-02T23:08:29.703Z,30.00
2023-03-02T23:10:58.831Z,30.00
2023-03-02T23:13:39.848Z,21.00
2023-03-02T23:16:28.774Z,27.33
2023-03-02T23:18:59.556Z,24.50
2023-03-02T23:21:47.138Z,27.00
2023-03-02T23:24:14.700Z,27.00
2023-03-02T23:26:41.690Z,30.50
2023-03-02T23:29:08.809Z,30.00
2023-03-02T23:31:36.639Z,28.00
2023-03-02T23:34:05.437Z,29.67
2023-03-02T23:36:32.669Z,30.00
2023-03-02T23:39:00.670Z,32.00
2023-03-02T23:41:27.512Z,34.50
2023-03-02T23:43:55.369Z,31.50
2023-03-02T23:46:23.205Z,34.00
2023-03-02T23:48:52.088Z,32.67
2023-03-02T23:51:20.658Z,33.67
2023-03-02T23:53:48.754Z,31.50
2023-03-02T23:56:16.562Z,32.00
2023-03-02T23:58:44.400Z,29.50
